sensor_id;sensor_type;location;lat;lon;timestamp;temperature;humidity
18020;DHT22;9135;48.362;10.878;2022-08-04T07:13:27;23.10;99.90
18020;DHT22;9135;48.362;10.878;2022-08-04T07:15:54;23.20;99.90
18020;DHT22;9135;48.362;10.878;2022-08-04T07:18:20;23.30;99.90
18020;DHT22;9135;48.362;10.878;2022-08-04T07:23:14;23.50;99.90
18020;DHT22;9135;48.362;10.878;2022-08-04T07:25:55;23.60;99.90
18020;DHT22;9135;48.362;10.878;2022-08-04T07:30:53;24.00;87.90
18020;DHT22;9135;48.362;10.878;2022-08-04T07:33:19;23.90;59.50
18020;DHT22;9135;48.362;10.878;2022-08-04T07:35:48;23.90;65.70
18020;DHT22;9135;48.362;10.878;2022-08-04T07:38:15;23.90;39.10
18020;DHT22;9135;48.362;10.878;2022-08-04T07:40:40;24.00;56.20
18020;DHT22;9135;48.362;10.878;2022-08-04T07:43:07;24.30;99.90
18020;DHT22;9135;48.362;10.878;2022-08-04T07:45:33;24.40;1.00
18020;DHT22;9135;48.362;10.878;2022-08-04T07:48:00;24.90;1.00
18020;DHT22;9135;48.362;10.878;2022-08-04T07:50:27;25.00;99.90
18020;DHT22;9135;48.362;10.878;2022-08-04T07:52:53;25.20;1.00
18020;DHT22;9135;48.362;10.878;2022-08-04T07:55:19;25.20;99.90
18020;DHT22;9135;48.362;10.878;2022-08-04T07:57:46;25.90;21.40
18020;DHT22;9135;48.362;10.878;2022-08-04T08:00:12;26.10;1.00
18020;DHT22;9135;48.362;10.878;2022-08-04T08:02:59;26.30;99.90
18020;DHT22;9135;48.362;10.878;2022-08-04T08:05:26;26.80;1.00
18020;DHT22;9135;48.362;10.878;2022-08-04T08:07:52;26.60;1.00
18020;DHT22;9135;48.362;10.878;2022-08-04T08:10:19;27.00;1.00
18020;DHT22;9135;48.362;10.878;2022-08-04T08:12:45;27.30;1.00
18020;DHT22;9135;48.362;10.878;2022-08-04T08:15:11;27.10;99.90
18020;DHT22;9135;48.362;10.878;2022-08-04T08:17:37;27.00;99.90
18020;DHT22;9135;48.362;10.878;2022-08-04T08:20:06;27.20;99.90
18020;DHT22;9135;48.362;10.878;2022-08-04T08:22:32;27.50;99.90
18020;DHT22;9135;48.362;10.878;2022-08-04T08:24:57;27.00;99.90
18020;DHT22;9135;48.362;10.878;2022-08-04T08:27:24;27.40;1.00
18020;DHT22;9135;48.362;10.878;2022-08-04T08:29:50;27.80;1.00
18020;DHT22;9135;48.362;10.878;2022-08-04T08:32:16;28.30;99.90
18020;DHT22;9135;48.362;10.878;2022-08-04T08:34:42;28.60;1.00
18020;DHT22;9135;48.362;10.878;2022-08-04T08:39:53;28.20;1.00
18020;DHT22;9135;48.362;10.878;2022-08-04T08:56:32;29.20;1.00
18020;DHT22;9135;48.362;10.878;2022-08-04T08:59:30;29.10;1.00
18020;DHT22;9135;48.362;10.878;2022-08-04T09:10:36;29.70;1.00
18020;DHT22;9135;48.362;10.878;2022-08-04T09:13:39;29.40;1.00
18020;DHT22;9135;48.362;10.878;2022-08-04T09:16:30;29.60;1.00
18020;DHT22;9135;48.362;10.878;2022-08-04T09:19:11;29.90;1.00
18020;DHT22;9135;48.362;10.878;2022-08-04T09:21:44;29.90;1.00
18020;DHT22;9135;48.362;10.878;2022-08-04T09:24:17;30.20;1.00
18020;DHT22;9135;48.362;10.878;2022-08-04T09:29:44;31.00;1.00
18020;DHT22;9135;48.362;10.878;2022-08-04T09:32:29;31.00;1.00
18020;DHT22;9135;48.362;10.878;2022-08-04T09:46:27;31.20;1.00
18020;DHT22;9135;48.362;10.878;2022-08-04T09:59:35;31.70;99.90
18020;DHT22;9135;48.362;10.878;2022-08-04T10:02:10;32.20;99.90
18020;DHT22;9135;48.362;10.878;2022-08-04T10:04:39;32.40;99.90
18020;DHT22;9135;48.362;10.878;2022-08-04T10:07:18;31.90;99.90
18020;DHT22;9135;48.362;10.878;2022-08-04T10:15:30;32.50;99.90
18020;DHT22;9135;48.362;10.878;2022-08-04T10:18:22;32.00;99.90
18020;DHT22;9135;48.362;10.878;2022-08-04T10:21:18;32.10;99.90
18020;DHT22;9135;48.362;10.878;2022-08-04T10:26:54;32.50;99.90
18020;DHT22;9135;48.362;10.878;2022-08-04T10:29:27;32.60;99.90
18020;DHT22;9135;48.362;10.878;2022-08-04T10:31:59;32.30;99.90
18020;DHT22;9135;48.362;10.878;2022-08-04T10:34:35;32.60;99.90
18020;DHT22;9135;48.362;10.878;2022-08-04T10:40:02;32.50;1.00
18020;DHT22;9135;48.362;10.878;2022-08-04T10:42:57;32.80;1.00
18020;DHT22;9135;48.362;10.878;2022-08-04T10:48:00;32.90;1.00
18020;DHT22;9135;48.362;10.878;2022-08-04T10:50:28;33.00;99.90
18020;DHT22;9135;48.362;10.878;2022-08-04T10:53:04;33.00;99.90
18020;DHT22;9135;48.362;10.878;2022-08-04T10:55:40;32.90;99.90
18020;DHT22;9135;48.362;10.878;2022-08-04T10:58:13;33.00;99.90
18020;DHT22;9135;48.362;10.878;2022-08-04T11:00:42;33.20;99.90
18020;DHT22;9135;48.362;10.878;2022-08-04T11:03:32;33.40;99.90
18020;DHT22;9135;48.362;10.878;2022-08-04T11:06:00;33.20;99.90
18020;DHT22;9135;48.362;10.878;2022-08-04T11:08:34;33.20;99.90
18020;DHT22;9135;48.362;10.878;2022-08-04T11:14:01;33.00;99.90
18020;DHT22;9135;48.362;10.878;2022-08-04T11:16:38;33.50;99.90
18020;DHT22;9135;48.362;10.878;2022-08-04T11:19:37;33.40;99.90
18020;DHT22;9135;48.362;10.878;2022-08-04T11:22:13;33.40;25.60
18020;DHT22;9135;48.362;10.878;2022-08-04T11:27:18;33.60;62.80
18020;DHT22;9135;48.362;10.878;2022-08-04T11:30:04;33.50;40.80
18020;DHT22;9135;48.362;10.878;2022-08-04T11:33:08;33.50;1.00
18020;DHT22;9135;48.362;10.878;2022-08-04T11:38:52;32.90;1.00
18020;DHT22;9135;48.362;10.878;2022-08-04T11:47:04;33.90;1.00
18020;DHT22;9135;48.362;10.878;2022-08-04T11:49:40;33.80;1.00
18020;DHT22;9135;48.362;10.878;2022-08-04T11:54:35;33.70;1.00
18020;DHT22;9135;48.362;10.878;2022-08-04T11:57:03;33.90;1.00
18020;DHT22;9135;48.362;10.878;2022-08-04T11:59:30;34.00;1.00
18020;DHT22;9135;48.362;10.878;2022-08-04T12:02:09;34.20;1.00
18020;DHT22;9135;48.362;10.878;2022-08-04T12:04:56;34.00;99.90
18020;DHT22;9135;48.362;10.878;2022-08-04T12:13:03;34.10;99.90
18020;DHT22;9135;48.362;10.878;2022-08-04T12:15:50;33.80;99.90
18020;DHT22;9135;48.362;10.878;2022-08-04T12:23:51;34.20;99.90
18020;DHT22;9135;48.362;10.878;2022-08-04T12:26:24;34.40;99.90
18020;DHT22;9135;48.362;10.878;2022-08-04T12:28:57;34.50;99.90
18020;DHT22;9135;48.362;10.878;2022-08-04T12:31:30;34.30;99.90
18020;DHT22;9135;48.362;10.878;2022-08-04T12:34:06;34.00;90.40
18020;DHT22;9135;48.362;10.878;2022-08-04T12:36:50;34.00;99.90
18020;DHT22;9135;48.362;10.878;2022-08-04T12:39:21;34.40;99.90
18020;DHT22;9135;48.362;10.878;2022-08-04T12:41:49;34.10;58.60
18020;DHT22;9135;48.362;10.878;2022-08-04T12:44:18;34.30;99.90
18020;DHT22;9135;48.362;10.878;2022-08-04T12:46:45;34.10;15.00
18020;DHT22;9135;48.362;10.878;2022-08-04T12:51:40;33.80;99.90
18020;DHT22;9135;48.362;10.878;2022-08-04T12:54:08;33.80;1.00
18020;DHT22;9135;48.362;10.878;2022-08-04T12:56:35;34.30;1.00
18020;DHT22;9135;48.362;10.878;2022-08-04T12:59:05;34.50;1.00
18020;DHT22;9135;48.362;10.878;2022-08-04T13:01:32;34.30;1.00
18020;DHT22;9135;48.362;10.878;2022-08-04T13:04:03;34.50;1.00
18020;DHT22;9135;48.362;10.878;2022-08-04T13:06:36;34.60;12.20
18020;DHT22;9135;48.362;10.878;2022-08-04T13:09:07;34.40;1.00
18020;DHT22;9135;48.362;10.878;2022-08-04T13:11:40;34.80;1.00
18020;DHT22;9135;48.362;10.878;2022-08-04T13:14:07;34.80;1.00
18020;DHT22;9135;48.362;10.878;2022-08-04T13:16:34;34.30;1.00
18020;DHT22;9135;48.362;10.878;2022-08-04T13:19:00;34.30;1.00
18020;DHT22;9135;48.362;10.878;2022-08-04T13:21:29;34.70;1.00
18020;DHT22;9135;48.362;10.878;2022-08-04T13:24:02;34.40;1.00
18020;DHT22;9135;48.362;10.878;2022-08-04T13:26:28;34.40;1.00
18020;DHT22;9135;48.362;10.878;2022-08-04T13:28:59;34.40;1.00
18020;DHT22;9135;48.362;10.878;2022-08-04T13:31:26;34.40;1.00
18020;DHT22;9135;48.362;10.878;2022-08-04T13:33:54;34.70;1.00
18020;DHT22;9135;48.362;10.878;2022-08-04T13:36:27;34.50;1.00
18020;DHT22;9135;48.362;10.878;2022-08-04T13:38:57;34.20;1.00
18020;DHT22;9135;48.362;10.878;2022-08-04T13:41:26;34.40;1.00
18020;DHT22;9135;48.362;10.878;2022-08-04T13:43:58;34.40;1.00
18020;DHT22;9135;48.362;10.878;2022-08-04T13:46:30;34.40;1.00
18020;DHT22;9135;48.362;10.878;2022-08-04T13:48:58;34.70;1.00
18020;DHT22;9135;48.362;10.878;2022-08-04T13:53:58;34.70;1.00
18020;DHT22;9135;48.362;10.878;2022-08-04T13:56:31;34.70;1.00
18020;DHT22;9135;48.362;10.878;2022-08-04T13:58:59;34.00;1.00
18020;DHT22;9135;48.362;10.878;2022-08-04T14:01:27;34.20;1.00
18020;DHT22;9135;48.362;10.878;2022-08-04T14:06:33;34.50;1.00
18020;DHT22;9135;48.362;10.878;2022-08-04T14:14:20;34.70;1.00
18020;DHT22;9135;48.362;10.878;2022-08-04T14:19:57;34.90;1.00
18020;DHT22;9135;48.362;10.878;2022-08-04T14:27:54;34.40;1.00
18020;DHT22;9135;48.362;10.878;2022-08-04T14:32:56;35.50;99.90
18020;DHT22;9135;48.362;10.878;2022-08-04T14:35:21;35.10;99.90
18020;DHT22;9135;48.362;10.878;2022-08-04T15:17:54;34.90;99.90
18020;DHT22;9135;48.362;10.878;2022-08-04T15:27:40;34.70;99.90
18020;DHT22;9135;48.362;10.878;2022-08-04T15:30:10;35.00;99.90
18020;DHT22;9135;48.362;10.878;2022-08-04T15:40:17;34.60;1.00
